Terminal Aerodrome Forecast
Issued by NWS Kansas City/Pleasant Hill, MO

Home | Current Version | Previous Version | Text Only | Print | Product List | Glossary On
Versions: 1 2 3 4 5 6 7 8 9 10 11 12 13 14 15 16 17 18 19 20 21 22
100
FTUS43 KEAX 251135 CCA
TAFMCI
TAF COR
KMCI 251135Z 2512/2612 02008KT P6SM OVC035
     FM251400 36010KT 5SM BR VCSH OVC005
     FM251800 33009KT P6SM VCSH OVC008
     FM260300 31005KT P6SM OVC010=

USA.gov is the U.S. government's official web portal to all federal, state and local government web resources and services.